Time;durP1;ratioP1;P1;durP2;ratioP2;P2;SDS_P1;SDS_P2;PMS_P1;PMS_P2;Temp;Humidity;BMP_temperature;BMP_pressure;BME280_temperature;BME280_humidity;BME280_pressure;Samples;Min_cycle;Max_cycle;Signal;HPM_P1;HPM_P2
2024/01/24 00:01:45;;;;;;;;;;;;;;;12.36;100.00;101268.03;4976547;28;20015;-71
2024/01/24 00:04:10;;;;;;;;;;;;;;;12.23;100.00;101304.03;4995919;28;20310;-73
2024/01/24 00:06:36;;;;;;;;;;;;;;;12.26;100.00;101284.94;4990987;28;20721;-74
2024/01/24 00:09:01;;;;;;;;;;;;;;;12.28;100.00;101284.81;4994582;28;20036;-72
2024/01/24 00:11:26;;;;;;;;;;;;;;;12.35;100.00;101283.34;4981637;28;20016;-71
2024/01/24 00:13:52;;;;;;;;;;;;;;;12.27;100.00;101288.47;5008959;28;19921;-74
2024/01/24 00:16:17;;;;;;;;;;;;;;;12.30;100.00;101297.19;4995142;28;19921;-72
2024/01/24 00:18:43;;;;;;;;;;;;;;;12.41;100.00;101284.69;4994328;28;19964;-71
2024/01/24 00:21:08;;;;;;;;;;;;;;;12.34;100.00;101286.16;4991837;28;20503;-73
2024/01/24 00:23:33;;;;;;;;;;;;;;;12.39;100.00;101286.66;5008296;28;19932;-72
2024/01/24 00:25:58;;;;;;;;;;;;;;;12.44;100.00;101274.56;4993148;28;20299;-71
2024/01/24 00:28:26;;;;;;;;;;;;;;;12.56;100.00;101253.88;4977842;28;19969;-73
2024/01/24 00:30:51;;;;;;;;;;;;;;;12.52;100.00;101248.84;4994741;28;19967;-72
2024/01/24 00:33:16;;;;;;;;;;;;;;;12.53;100.00;101237.09;4980273;28;19918;-71
2024/01/24 00:35:42;;;;;;;;;;;;;;;12.62;100.00;101259.72;4993502;28;19960;-72
2024/01/24 00:38:07;;;;;;;;;;;;;;;12.60;100.00;101249.09;4998288;28;20268;-72
2024/01/24 00:40:32;;;;;;;;;;;;;;;12.55;100.00;101229.75;5010132;28;20018;-72
2024/01/24 00:42:57;;;;;;;;;;;;;;;12.52;100.00;101268.56;5009847;28;19999;-73
2024/01/24 00:45:23;;;;;;;;;;;;;;;12.70;100.00;101265.38;5009340;28;20403;-72
2024/01/24 00:47:48;;;;;;;;;;;;;;;12.57;100.00;101249.34;5008351;28;19928;-73
2024/01/24 00:50:13;;;;;;;;;;;;;;;12.67;100.00;101253.03;5007820;28;19925;-71
2024/01/24 00:52:38;;;;;;;;;;;;;;;12.47;100.00;101257.28;4988025;28;19957;-71
2024/01/24 00:55:04;;;;;;;;;;;;;;;12.36;100.00;101276.13;4991097;28;20004;-73
2024/01/24 00:57:29;;;;;;;;;;;;;;;12.10;100.00;101249.41;4992120;28;19921;-72
2024/01/24 00:59:54;;;;;;;;;;;;;;;11.83;100.00;101242.47;4993508;28;19953;-72
2024/01/24 01:02:19;;;;;;;;;;;;;;;11.73;100.00;101214.56;4993583;28;19921;-73
2024/01/24 01:04:45;;;;;;;;;;;;;;;11.70;100.00;101219.22;4989712;28;19968;-72
2024/01/24 01:07:10;;;;;;;;;;;;;;;11.67;100.00;101224.81;4993428;28;20032;-71
2024/01/24 01:09:36;;;;;;;;;;;;;;;11.64;100.00;101221.53;4993268;28;20012;-71
2024/01/24 01:12:01;;;;;;;;;;;;;;;11.68;100.00;101234.59;5009071;28;19937;-72
2024/01/24 01:14:26;;;;;;;;;;;;;;;11.74;100.00;101248.56;5008829;28;19926;-74
2024/01/24 01:16:51;;;;;;;;;;;;;;;11.67;100.00;101215.88;5008756;28;19929;-72
2024/01/24 01:19:17;;;;;;;;;;;;;;;11.62;100.00;101224.31;4991537;28;19932;-71
2024/01/24 01:21:42;;;;;;;;;;;;;;;11.65;100.00;101234.84;5010082;28;19965;-73
2024/01/24 01:24:09;;;;;;;;;;;;;;;11.58;100.00;101236.28;4988105;28;20047;-72
2024/01/24 01:26:34;;;;;;;;;;;;;;;11.57;100.00;101215.72;5008619;28;20281;-72
2024/01/24 01:28:59;;;;;;;;;;;;;;;11.47;100.00;101222.78;4981888;28;20052;-73
2024/01/24 01:31:24;;;;;;;;;;;;;;;11.56;100.00;101216.69;4979539;28;19929;-72
2024/01/24 01:33:50;;;;;;;;;;;;;;;11.51;100.00;101209.00;4991477;28;19983;-72
2024/01/24 01:36:15;;;;;;;;;;;;;;;11.52;100.00;101209.88;4990249;28;20028;-73
2024/01/24 01:38:40;;;;;;;;;;;;;;;11.50;100.00;101201.06;4992388;28;19922;-71
2024/01/24 01:41:05;;;;;;;;;;;;;;;11.58;100.00;101238.13;4994582;28;20308;-71
2024/01/24 01:43:31;;;;;;;;;;;;;;;11.49;100.00;101234.28;4994705;28;20571;-73
2024/01/24 01:45:57;;;;;;;;;;;;;;;11.48;100.00;101222.66;4992742;28;20620;-72
2024/01/24 01:48:22;;;;;;;;;;;;;;;11.53;100.00;101223.19;4992629;28;19928;-72
2024/01/24 01:50:47;;;;;;;;;;;;;;;11.49;100.00;101237.00;4991126;28;20175;-72
2024/01/24 01:53:13;;;;;;;;;;;;;;;11.49;100.00;101228.91;4991022;28;19953;-71
2024/01/24 01:55:38;;;;;;;;;;;;;;;11.33;100.00;101226.53;4976094;28;19964;-70
2024/01/24 01:58:03;;;;;;;;;;;;;;;11.37;100.00;101244.16;4988093;28;19925;-71
2024/01/24 02:00:28;;;;;;;;;;;;;;;11.24;100.00;101223.53;5009929;28;19967;-73
2024/01/24 02:02:54;;;;;;;;;;;;;;;11.18;100.00;101212.41;4996408;28;19937;-72
2024/01/24 02:05:19;;;;;;;;;;;;;;;11.14;100.00;101192.09;4977490;28;19913;-72
2024/01/24 02:07:44;;;;;;;;;;;;;;;11.08;100.00;101164.69;4991331;28;19921;-72
2024/01/24 02:10:10;;;;;;;;;;;;;;;11.06;100.00;101160.44;4974213;28;20248;-74
2024/01/24 02:12:35;;;;;;;;;;;;;;;10.99;100.00;101151.94;4976329;28;20646;-72
2024/01/24 02:15:01;;;;;;;;;;;;;;;11.01;100.00;101138.41;4978126;28;19924;-75
2024/01/24 02:17:27;;;;;;;;;;;;;;;11.05;100.00;101147.97;4973375;28;19921;-74
2024/01/24 02:19:52;;;;;;;;;;;;;;;10.99;100.00;101129.63;4989085;28;19929;-74
2024/01/24 02:22:17;;;;;;;;;;;;;;;10.95;100.00;101115.56;4972027;28;19937;-75
2024/01/24 02:24:43;;;;;;;;;;;;;;;10.97;100.00;101112.75;4990063;28;19918;-76
2024/01/24 02:27:08;;;;;;;;;;;;;;;10.93;100.00;101101.38;4974016;28;19976;-77
2024/01/24 02:29:33;;;;;;;;;;;;;;;10.92;100.00;101103.19;4995903;28;19940;-73
2024/01/24 02:31:59;;;;;;;;;;;;;;;10.93;100.00;101082.56;4980354;28;19965;-77
2024/01/24 02:34:24;;;;;;;;;;;;;;;10.91;100.00;101069.25;4991341;28;20019;-75
2024/01/24 02:36:49;;;;;;;;;;;;;;;10.88;100.00;101071.31;4987924;28;19944;-77
2024/01/24 02:39:14;;;;;;;;;;;;;;;10.94;100.00;101078.91;4992353;28;19933;-78
2024/01/24 02:41:39;;;;;;;;;;;;;;;10.92;100.00;101083.56;4988695;28;19922;-73
2024/01/24 02:44:05;;;;;;;;;;;;;;;10.90;100.00;101083.66;4980064;28;19926;-78
2024/01/24 02:46:30;;;;;;;;;;;;;;;10.95;100.00;101072.56;4975038;28;20689;-77
2024/01/24 02:48:55;;;;;;;;;;;;;;;10.95;100.00;101088.69;4999439;28;20387;-76
2024/01/24 02:51:27;;;;;;;;;;;;;;;11.03;100.00;101074.69;4975908;28;20428;-75
2024/01/24 02:53:52;;;;;;;;;;;;;;;11.02;100.00;101083.72;4992594;28;19929;-72
2024/01/24 02:56:17;;;;;;;;;;;;;;;11.08;100.00;101107.44;4972215;28;20368;-78
2024/01/24 02:58:43;;;;;;;;;;;;;;;11.07;100.00;101076.16;4993433;28;19991;-74
2024/01/24 03:01:08;;;;;;;;;;;;;;;11.04;100.00;101068.31;4996775;28;20423;-73
2024/01/24 03:03:33;;;;;;;;;;;;;;;10.96;100.00;101063.53;5008833;28;19925;-75
2024/01/24 03:05:58;;;;;;;;;;;;;;;11.13;100.00;101064.91;4983610;28;19979;-76
2024/01/24 03:08:23;;;;;;;;;;;;;;;11.17;100.00;101092.44;4992695;28;20561;-75
2024/01/24 03:10:49;;;;;;;;;;;;;;;11.10;100.00;101124.28;4992879;28;20051;-74
2024/01/24 03:13:14;;;;;;;;;;;;;;;11.21;100.00;101116.25;4994836;28;19948;-78
2024/01/24 03:15:39;;;;;;;;;;;;;;;11.12;100.00;101114.28;4976974;28;20015;-76
2024/01/24 03:18:04;;;;;;;;;;;;;;;11.21;100.00;101135.06;4980317;28;19925;-76
2024/01/24 03:20:30;;;;;;;;;;;;;;;11.13;100.00;101121.34;4978002;28;19921;-77
2024/01/24 03:22:55;;;;;;;;;;;;;;;11.09;100.00;101131.47;4994513;28;19921;-75
2024/01/24 03:25:21;;;;;;;;;;;;;;;11.20;100.00;101143.25;5007254;28;20348;-74
2024/01/24 03:27:46;;;;;;;;;;;;;;;11.23;100.00;101161.84;4992968;28;19933;-76
2024/01/24 03:30:11;;;;;;;;;;;;;;;11.28;100.00;101183.00;4995236;28;19971;-73
2024/01/24 03:32:36;;;;;;;;;;;;;;;11.27;100.00;101186.66;4992395;28;19977;-74
2024/01/24 03:35:02;;;;;;;;;;;;;;;11.23;100.00;101194.94;4994806;28;20011;-74
2024/01/24 03:37:27;;;;;;;;;;;;;;;11.31;100.00;101191.69;4984702;28;20491;-77
2024/01/24 03:39:52;;;;;;;;;;;;;;;11.27;100.00;101200.94;4976098;28;20357;-74
2024/01/24 03:42:18;;;;;;;;;;;;;;;11.26;100.00;101220.72;4976326;28;19927;-76
2024/01/24 03:44:43;;;;;;;;;;;;;;;11.27;100.00;101219.75;4995331;28;19932;-76
2024/01/24 03:47:08;;;;;;;;;;;;;;;11.25;100.00;101244.06;4993904;28;20016;-74
2024/01/24 03:49:33;;;;;;;;;;;;;;;11.27;100.00;101248.47;4992208;28;20386;-75
2024/01/24 03:51:59;;;;;;;;;;;;;;;11.40;100.00;101290.47;4988612;28;19921;-72
2024/01/24 03:54:24;;;;;;;;;;;;;;;11.33;100.00;101294.56;4992256;28;20350;-76
2024/01/24 03:56:49;;;;;;;;;;;;;;;11.30;100.00;101300.16;4992009;28;20364;-75
2024/01/24 03:59:14;;;;;;;;;;;;;;;11.37;100.00;101296.06;4994794;28;20633;-75
2024/01/24 04:01:40;;;;;;;;;;;;;;;11.40;100.00;101320.03;4994380;28;20387;-76
2024/01/24 04:04:05;;;;;;;;;;;;;;;11.34;100.00;101331.25;4977042;28;20277;-72
2024/01/24 04:06:30;;;;;;;;;;;;;;;11.20;100.00;101313.44;4981727;28;20343;-72
2024/01/24 04:08:55;;;;;;;;;;;;;;;11.17;100.00;101280.56;4975786;28;20291;-73
2024/01/24 04:11:20;;;;;;;;;;;;;;;11.16;100.00;101266.25;4991676;28;20273;-74
2024/01/24 04:13:50;;;;;;;;;;;;;;;11.18;100.00;101291.19;4978011;28;20390;-73
2024/01/24 04:16:15;;;;;;;;;;;;;;;11.14;100.00;101302.28;4994605;28;19921;-72
2024/01/24 04:18:40;;;;;;;;;;;;;;;11.09;100.00;101321.44;4978279;28;19921;-76
2024/01/24 04:21:05;;;;;;;;;;;;;;;11.06;100.00;101327.88;5010608;28;20046;-71
2024/01/24 04:23:31;;;;;;;;;;;;;;;11.05;100.00;101328.00;4990725;28;20064;-73
2024/01/24 04:25:56;;;;;;;;;;;;;;;11.14;100.00;101350.66;4993766;28;20051;-73
2024/01/24 04:28:21;;;;;;;;;;;;;;;11.02;100.00;101349.72;4990529;28;19971;-72
2024/01/24 04:30:46;;;;;;;;;;;;;;;11.07;100.00;101347.56;4972994;28;20023;-72
2024/01/24 04:33:14;;;;;;;;;;;;;;;11.04;100.00;101385.38;4992495;28;19921;-71
2024/01/24 04:35:39;;;;;;;;;;;;;;;11.01;100.00;101338.09;4978157;28;19921;-71
2024/01/24 04:38:04;;;;;;;;;;;;;;;11.04;100.00;101353.16;4979791;28;19928;-71
2024/01/24 04:40:29;;;;;;;;;;;;;;;10.92;100.00;101355.72;4991086;28;19957;-72
2024/01/24 04:42:54;;;;;;;;;;;;;;;11.05;100.00;101354.88;4996336;28;20433;-73
2024/01/24 04:45:20;;;;;;;;;;;;;;;10.88;100.00;101369.50;4997148;28;19921;-72
2024/01/24 04:47:45;;;;;;;;;;;;;;;10.92;100.00;101362.94;4980420;28;20091;-72
2024/01/24 04:50:11;;;;;;;;;;;;;;;10.94;100.00;101342.19;4996869;28;20051;-72
2024/01/24 04:52:36;;;;;;;;;;;;;;;11.00;100.00;101359.69;4988565;28;19922;-72
2024/01/24 04:55:01;;;;;;;;;;;;;;;11.09;100.00;101378.72;4997204;28;19967;-72
2024/01/24 04:57:26;;;;;;;;;;;;;;;10.97;100.00;101343.78;4989290;28;20271;-72
2024/01/24 04:59:52;;;;;;;;;;;;;;;10.92;100.00;101366.47;4992562;28;19917;-73
2024/01/24 05:02:17;;;;;;;;;;;;;;;10.95;100.00;101363.56;5007014;28;19921;-71
2024/01/24 05:04:43;;;;;;;;;;;;;;;10.83;100.00;101379.69;4976929;28;19921;-70
2024/01/24 05:07:08;;;;;;;;;;;;;;;10.79;100.00;101362.94;4990511;28;19984;-72
2024/01/24 05:09:33;;;;;;;;;;;;;;;10.79;100.00;101398.72;4992831;28;19963;-71
2024/01/24 05:11:58;;;;;;;;;;;;;;;10.82;100.00;101392.28;4969257;28;19992;-71
2024/01/24 05:14:24;;;;;;;;;;;;;;;10.79;100.00;101405.94;4993195;28;19921;-71
2024/01/24 05:16:49;;;;;;;;;;;;;;;10.90;100.00;101414.06;4995903;28;20422;-71
2024/01/24 05:19:14;;;;;;;;;;;;;;;10.90;100.00;101395.28;5004916;28;19981;-72
2024/01/24 05:21:41;;;;;;;;;;;;;;;11.01;100.00;101401.72;4991739;28;19941;-71
2024/01/24 05:24:06;;;;;;;;;;;;;;;11.01;100.00;101418.69;4987843;28;19917;-71
2024/01/24 05:26:31;;;;;;;;;;;;;;;10.76;100.00;101382.81;4995016;28;20375;-71
2024/01/24 05:28:56;;;;;;;;;;;;;;;10.90;100.00;101419.44;4993565;28;20331;-71
2024/01/24 05:31:21;;;;;;;;;;;;;;;10.87;100.00;101398.16;4991936;28;21355;-70
2024/01/24 05:33:47;;;;;;;;;;;;;;;10.90;100.00;101413.22;4977522;28;20376;-73
2024/01/24 05:36:12;;;;;;;;;;;;;;;10.83;100.00;101420.88;4987978;28;20387;-71
2024/01/24 05:38:37;;;;;;;;;;;;;;;10.84;100.00;101410.97;4989931;28;19949;-72
2024/01/24 05:41:02;;;;;;;;;;;;;;;10.93;100.00;101423.78;4992832;28;20351;-73
2024/01/24 05:43:28;;;;;;;;;;;;;;;10.94;100.00;101434.41;4993429;28;20368;-71
2024/01/24 05:45:53;;;;;;;;;;;;;;;10.89;100.00;101423.09;4987565;28;19922;-71
2024/01/24 05:48:18;;;;;;;;;;;;;;;10.85;100.00;101445.81;5008227;28;19933;-72
2024/01/24 05:50:43;;;;;;;;;;;;;;;10.87;100.00;101443.00;4987940;28;20680;-72
2024/01/24 05:53:08;;;;;;;;;;;;;;;10.90;100.00;101434.72;5006494;28;20299;-73
2024/01/24 05:55:35;;;;;;;;;;;;;;;10.84;100.00;101459.31;4988751;28;19999;-72
2024/01/24 05:58:01;;;;;;;;;;;;;;;10.84;100.00;101459.31;4992522;28;20012;-71
2024/01/24 06:00:26;;;;;;;;;;;;;;;10.76;100.00;101447.28;4991928;28;19943;-71
2024/01/24 06:02:52;;;;;;;;;;;;;;;10.73;100.00;101462.75;4973994;28;19929;-71
2024/01/24 06:05:18;;;;;;;;;;;;;;;10.71;100.00;101481.66;4987626;28;20005;-72
2024/01/24 06:07:43;;;;;;;;;;;;;;;10.83;100.00;101493.41;4993603;28;19947;-71
2024/01/24 06:10:09;;;;;;;;;;;;;;;10.82;100.00;101489.00;5007077;28;20388;-72
2024/01/24 06:12:34;;;;;;;;;;;;;;;10.96;100.00;101504.16;4993516;28;19926;-72
2024/01/24 06:14:59;;;;;;;;;;;;;;;10.97;100.00;101497.81;4992064;28;19974;-72
2024/01/24 06:17:24;;;;;;;;;;;;;;;10.83;100.00;101520.25;4993176;28;20382;-70
2024/01/24 06:19:51;;;;;;;;;;;;;;;10.87;100.00;101513.69;4975943;28;20275;-72
2024/01/24 06:22:16;;;;;;;;;;;;;;;10.78;100.00;101517.88;4995723;28;19922;-72
2024/01/24 06:24:41;;;;;;;;;;;;;;;10.85;100.00;101529.06;4993868;28;19929;-72
2024/01/24 06:27:08;;;;;;;;;;;;;;;10.80;100.00;101539.28;4995518;28;19925;-72
2024/01/24 06:29:34;;;;;;;;;;;;;;;10.85;100.00;101528.19;4993427;28;20422;-71
2024/01/24 06:31:59;;;;;;;;;;;;;;;10.83;100.00;101536.38;4993754;28;19967;-73
2024/01/24 06:34:26;;;;;;;;;;;;;;;10.84;100.00;101545.28;4994472;28;20019;-72
2024/01/24 06:36:51;;;;;;;;;;;;;;;10.75;100.00;101553.00;4992441;28;20040;-71
2024/01/24 06:39:16;;;;;;;;;;;;;;;10.75;100.00;101562.88;4994345;28;19921;-71
2024/01/24 06:41:42;;;;;;;;;;;;;;;10.55;100.00;101575.81;4995848;28;19917;-71
2024/01/24 06:44:08;;;;;;;;;;;;;;;10.50;100.00;101569.91;4993478;28;19944;-71
2024/01/24 06:46:40;;;;;;;;;;;;;;;10.43;100.00;101577.50;4994185;28;20384;-73
2024/01/24 06:49:05;;;;;;;;;;;;;;;10.41;100.00;101584.78;4976404;28;19971;-72
2024/01/24 06:51:30;;;;;;;;;;;;;;;10.24;100.00;101601.06;4989652;28;20015;-71
2024/01/24 06:53:56;;;;;;;;;;;;;;;10.11;100.00;101617.09;4995182;28;19921;-72
2024/01/24 06:56:21;;;;;;;;;;;;;;;10.15;100.00;101619.50;4993644;28;19928;-72
2024/01/24 06:58:46;;;;;;;;;;;;;;;9.98;100.00;101660.81;4996706;28;19925;-71
2024/01/24 07:01:12;;;;;;;;;;;;;;;9.99;100.00;101664.34;4992889;28;20284;-72
2024/01/24 07:03:37;;;;;;;;;;;;;;;9.88;100.00;101648.91;4996361;28;20287;-72
2024/01/24 07:06:05;;;;;;;;;;;;;;;9.95;100.00;101662.81;4995671;28;20407;-71
2024/01/24 07:08:30;;;;;;;;;;;;;;;9.90;100.00;101650.56;4993280;28;19928;-73
2024/01/24 07:10:55;;;;;;;;;;;;;;;9.92;100.00;101628.16;4988591;28;19922;-73
2024/01/24 07:13:21;;;;;;;;;;;;;;;9.86;100.00;101643.66;4993618;28;19921;-72
2024/01/24 07:15:46;;;;;;;;;;;;;;;9.75;100.00;101654.19;4992640;28;19921;-71
2024/01/24 07:18:11;;;;;;;;;;;;;;;9.82;100.00;101662.69;4992391;28;20288;-72
2024/01/24 07:20:36;;;;;;;;;;;;;;;9.78;100.00;101655.81;4989869;28;19964;-71
2024/01/24 07:23:02;;;;;;;;;;;;;;;9.73;100.00;101632.81;4989914;28;19964;-71
2024/01/24 07:25:27;;;;;;;;;;;;;;;9.81;100.00;101667.22;4992483;28;19988;-72
2024/01/24 07:27:53;;;;;;;;;;;;;;;9.68;100.00;101682.31;4988093;28;19953;-71
2024/01/24 07:30:18;;;;;;;;;;;;;;;9.78;100.00;101671.91;4994555;28;20052;-72
2024/01/24 07:32:43;;;;;;;;;;;;;;;9.70;100.00;101683.97;4997177;28;20014;-71
2024/01/24 07:35:09;;;;;;;;;;;;;;;9.75;100.00;101672.94;5013303;28;20373;-71
2024/01/24 07:37:34;;;;;;;;;;;;;;;9.58;100.00;101687.38;4992524;28;20794;-71
2024/01/24 07:39:59;;;;;;;;;;;;;;;9.75;100.00;101703.31;4998711;28;19925;-71
2024/01/24 07:42:25;;;;;;;;;;;;;;;9.65;100.00;101706.66;4992627;28;19924;-71
2024/01/24 07:44:50;;;;;;;;;;;;;;;9.58;100.00;101698.97;5001188;28;19923;-72
2024/01/24 07:47:18;;;;;;;;;;;;;;;9.56;100.00;101682.13;4994222;28;20016;-72
2024/01/24 07:49:44;;;;;;;;;;;;;;;9.68;100.00;101696.59;4996518;28;19961;-70
2024/01/24 07:52:09;;;;;;;;;;;;;;;9.65;100.00;101683.38;4990987;28;20164;-69
2024/01/24 07:54:34;;;;;;;;;;;;;;;9.61;100.00;101700.59;4994707;28;19928;-70
2024/01/24 07:56:59;;;;;;;;;;;;;;;9.53;100.00;101708.25;4995915;28;19951;-72
2024/01/24 07:59:24;;;;;;;;;;;;;;;9.57;100.00;101736.59;4996866;28;19922;-71
2024/01/24 08:01:50;;;;;;;;;;;;;;;9.70;100.00;101729.56;4997038;28;19917;-70
2024/01/24 08:04:15;;;;;;;;;;;;;;;9.53;100.00;101746.63;4992625;28;20295;-70
2024/01/24 08:06:40;;;;;;;;;;;;;;;9.54;100.00;101742.13;4996383;28;20311;-70
2024/01/24 08:09:06;;;;;;;;;;;;;;;9.49;100.00;101734.38;4998204;28;20356;-70
2024/01/24 08:11:31;;;;;;;;;;;;;;;9.56;100.00;101729.50;4983295;28;19921;-69
2024/01/24 08:13:56;;;;;;;;;;;;;;;9.60;100.00;101734.59;4997021;28;20411;-70
2024/01/24 08:16:21;;;;;;;;;;;;;;;9.56;100.00;101743.78;5002811;28;19932;-70
2024/01/24 08:18:48;;;;;;;;;;;;;;;9.59;100.00;101750.75;4990079;28;19928;-70
2024/01/24 08:21:13;;;;;;;;;;;;;;;9.66;100.00;101746.78;4981179;28;19928;-71
2024/01/24 08:23:38;;;;;;;;;;;;;;;9.61;100.00;101708.63;5019045;28;19917;-70
2024/01/24 08:26:04;;;;;;;;;;;;;;;9.69;100.00;101756.44;4992307;28;19930;-70
2024/01/24 08:28:29;;;;;;;;;;;;;;;9.72;100.00;101764.31;4991822;28;19965;-73
2024/01/24 08:30:54;;;;;;;;;;;;;;;9.71;100.00;101763.47;5001522;28;20040;-69
2024/01/24 08:33:19;;;;;;;;;;;;;;;9.74;100.00;101768.66;5015545;28;19972;-71
2024/01/24 08:35:44;;;;;;;;;;;;;;;9.78;100.00;101780.03;5001356;28;19932;-70
2024/01/24 08:38:10;;;;;;;;;;;;;;;9.86;100.00;101780.47;5011534;28;20084;-70
2024/01/24 08:40:35;;;;;;;;;;;;;;;9.89;100.00;101776.72;4991674;28;19980;-70
2024/01/24 08:43:00;;;;;;;;;;;;;;;9.96;100.00;101779.88;5011158;28;20375;-70
2024/01/24 08:45:26;;;;;;;;;;;;;;;9.87;100.00;101775.94;4992299;28;19921;-70
2024/01/24 08:47:51;;;;;;;;;;;;;;;9.88;100.00;101796.44;4994370;28;19926;-70
2024/01/24 08:50:16;;;;;;;;;;;;;;;9.78;100.00;101809.53;4981328;28;20127;-70
2024/01/24 08:52:41;;;;;;;;;;;;;;;9.88;100.00;101796.44;4990287;28;20402;-72
2024/01/24 08:55:07;;;;;;;;;;;;;;;9.97;100.00;101795.91;4975304;28;19929;-73
2024/01/24 08:57:32;;;;;;;;;;;;;;;10.01;100.00;101794.78;4984004;28;20060;-72
2024/01/24 08:59:58;;;;;;;;;;;;;;;9.92;100.00;101807.88;5009587;28;19928;-72
2024/01/24 09:02:24;;;;;;;;;;;;;;;9.83;100.00;101796.72;4995625;28;20012;-71
2024/01/24 09:04:52;;;;;;;;;;;;;;;9.94;100.00;101811.31;4995254;28;20426;-72
2024/01/24 09:07:19;;;;;;;;;;;;;;;9.89;100.00;101830.38;4992187;28;19925;-72
2024/01/24 09:09:47;;;;;;;;;;;;;;;9.87;100.00;101843.88;4993532;28;20446;-72
2024/01/24 09:12:14;;;;;;;;;;;;;;;9.91;100.00;101844.56;4993789;28;19956;-72
2024/01/24 09:14:39;;;;;;;;;;;;;;;9.90;100.00;101858.91;4994204;28;20231;-72
2024/01/24 09:17:07;;;;;;;;;;;;;;;9.82;100.00;101853.13;4993981;28;19928;-72
2024/01/24 09:19:32;;;;;;;;;;;;;;;9.80;100.00;101841.66;4977363;28;19925;-72
2024/01/24 09:21:57;;;;;;;;;;;;;;;9.95;100.00;101847.91;4976978;28;19967;-71
2024/01/24 09:24:22;;;;;;;;;;;;;;;9.94;100.00;101863.16;4980500;28;20080;-74
2024/01/24 09:26:48;;;;;;;;;;;;;;;10.02;100.00;101862.69;4995590;28;19921;-72
2024/01/24 09:29:13;;;;;;;;;;;;;;;10.11;100.00;101867.53;4990316;28;20262;-72
2024/01/24 09:31:43;;;;;;;;;;;;;;;10.35;100.00;101873.22;4974140;28;19921;-72
2024/01/24 09:34:09;;;;;;;;;;;;;;;10.29;100.00;101867.38;4991695;28;19918;-74
2024/01/24 09:36:34;;;;;;;;;;;;;;;10.23;100.00;101906.19;4977025;28;20361;-73
2024/01/24 09:38:59;;;;;;;;;;;;;;;10.26;100.00;101916.75;4975861;28;19930;-73
2024/01/24 09:41:25;;;;;;;;;;;;;;;10.39;100.00;101927.66;5012175;28;19917;-71
2024/01/24 09:43:50;;;;;;;;;;;;;;;10.38;100.00;101923.19;4990023;28;20453;-72
2024/01/24 09:46:19;;;;;;;;;;;;;;;10.29;100.00;101931.78;4977130;28;20029;-72
2024/01/24 09:48:45;;;;;;;;;;;;;;;10.37;100.00;101926.84;4988024;28;19995;-75
2024/01/24 09:51:10;;;;;;;;;;;;;;;10.33;100.00;101944.94;4985853;28;20515;-72
2024/01/24 09:53:36;;;;;;;;;;;;;;;10.57;100.00;101931.06;5009425;28;20539;-72
2024/01/24 09:56:01;;;;;;;;;;;;;;;10.56;100.00;101936.50;4979702;28;19929;-73
2024/01/24 09:58:27;;;;;;;;;;;;;;;10.67;100.00;101942.09;4993377;28;19918;-72
2024/01/24 10:00:52;;;;;;;;;;;;;;;10.74;100.00;101951.47;5007421;28;19967;-72
2024/01/24 10:03:17;;;;;;;;;;;;;;;10.87;100.00;101943.53;4992922;28;19947;-72
2024/01/24 10:05:43;;;;;;;;;;;;;;;10.88;100.00;101950.66;5009689;28;20012;-73
2024/01/24 10:08:10;;;;;;;;;;;;;;;11.19;100.00;101958.66;4991221;28;19921;-72
2024/01/24 10:10:35;;;;;;;;;;;;;;;11.66;100.00;101965.50;4992133;28;19960;-72
2024/01/24 10:13:02;;;;;;;;;;;;;;;11.93;100.00;101963.78;4987693;28;20016;-72
2024/01/24 10:15:27;;;;;;;;;;;;;;;11.71;100.00;101959.81;4999070;28;19964;-73
2024/01/24 10:17:53;;;;;;;;;;;;;;;12.04;100.00;101964.00;4986065;28;19918;-72
2024/01/24 10:20:18;;;;;;;;;;;;;;;11.91;100.00;101928.06;4977719;28;20021;-72
2024/01/24 10:22:44;;;;;;;;;;;;;;;11.81;100.00;101971.72;4974933;28;19922;-73
2024/01/24 10:25:10;;;;;;;;;;;;;;;11.37;100.00;101945.88;4996080;28;19928;-73
2024/01/24 10:27:37;;;;;;;;;;;;;;;11.24;100.00;101953.84;4993502;28;19934;-73
2024/01/24 10:30:03;;;;;;;;;;;;;;;11.29;100.00;101981.28;4992192;28;20262;-72
2024/01/24 10:32:28;;;;;;;;;;;;;;;11.18;100.00;101975.72;4987519;28;19925;-73
2024/01/24 10:34:53;;;;;;;;;;;;;;;11.21;100.00;101986.28;4995505;28;19921;-72
2024/01/24 10:37:19;;;;;;;;;;;;;;;11.10;100.00;101998.56;4993768;28;19921;-72
2024/01/24 10:39:44;;;;;;;;;;;;;;;11.08;100.00;102005.00;4993106;28;19932;-73
2024/01/24 10:42:09;;;;;;;;;;;;;;;11.21;100.00;102008.66;5010600;28;20020;-72
2024/01/24 10:44:38;;;;;;;;;;;;;;;11.31;100.00;102014.31;4994429;28;20290;-74
2024/01/24 10:47:03;;;;;;;;;;;;;;;11.28;100.00;102009.13;4991965;28;20391;-72
2024/01/24 10:49:31;;;;;;;;;;;;;;;11.21;100.00;102015.88;4994953;28;19988;-72
2024/01/24 10:51:56;;;;;;;;;;;;;;;11.17;100.00;102011.63;4976885;28;19922;-73
2024/01/24 10:54:21;;;;;;;;;;;;;;;10.99;100.00;102021.69;4995513;28;19979;-73
2024/01/24 10:56:48;;;;;;;;;;;;;;;11.01;100.00;102026.00;4970608;28;19928;-72
2024/01/24 10:59:20;;;;;;;;;;;;;;;10.77;100.00;102026.53;4977450;28;19932;-72
2024/01/24 11:01:45;;;;;;;;;;;;;;;10.88;100.00;102031.25;4985604;28;19922;-73
2024/01/24 11:04:11;;;;;;;;;;;;;;;10.79;100.00;102053.31;4993038;28;19964;-72
2024/01/24 11:06:55;;;;;;;;;;;;;;;10.71;100.00;102047.53;4976946;28;19934;-73
2024/01/24 11:09:30;;;;;;;;;;;;;;;10.85;100.00;102063.69;5002796;28;19918;-74
2024/01/24 11:11:56;;;;;;;;;;;;;;;10.95;100.00;102040.69;4993378;28;19944;-71
2024/01/24 11:14:29;;;;;;;;;;;;;;;10.78;100.00;102054.28;4998244;28;19921;-73
2024/01/24 11:16:54;;;;;;;;;;;;;;;10.59;100.00;102049.09;4988092;28;19944;-72
2024/01/24 11:19:20;;;;;;;;;;;;;;;10.56;100.00;102062.72;4995989;28;20537;-71
2024/01/24 11:21:49;;;;;;;;;;;;;;;10.55;100.00;102071.72;4998545;28;19921;-72
2024/01/24 11:24:33;;;;;;;;;;;;;;;10.61;100.00;102066.00;4979149;28;19921;-72
2024/01/24 11:26:58;;;;;;;;;;;;;;;10.55;100.00;102064.56;4996367;28;19968;-73
2024/01/24 11:29:23;;;;;;;;;;;;;;;10.60;100.00;102066.97;4997734;28;19921;-73
2024/01/24 11:31:48;;;;;;;;;;;;;;;10.61;100.00;102079.44;4995884;28;19918;-72
2024/01/24 11:34:17;;;;;;;;;;;;;;;10.59;100.00;102065.22;4982490;28;20072;-72
2024/01/24 11:36:47;;;;;;;;;;;;;;;10.64;100.00;102077.41;4978762;28;19921;-71
2024/01/24 11:39:30;;;;;;;;;;;;;;;10.93;100.00;102085.59;5000133;28;20299;-72
2024/01/24 11:42:14;;;;;;;;;;;;;;;10.99;100.00;102094.25;4997755;28;19941;-72
2024/01/24 11:44:39;;;;;;;;;;;;;;;11.12;100.00;102091.69;5015050;28;19928;-72
2024/01/24 11:47:04;;;;;;;;;;;;;;;11.33;100.00;102095.75;4975549;28;19930;-72
2024/01/24 11:49:30;;;;;;;;;;;;;;;11.22;100.00;102080.28;5014826;28;20537;-72
2024/01/24 11:52:02;;;;;;;;;;;;;;;11.01;100.00;102084.28;4990766;28;19961;-73
2024/01/24 11:54:27;;;;;;;;;;;;;;;11.30;100.00;102101.31;4997305;28;19944;-72
2024/01/24 11:56:52;;;;;;;;;;;;;;;11.71;100.00;102110.47;4982534;28;19925;-72
2024/01/24 11:59:20;;;;;;;;;;;;;;;12.10;100.00;102135.00;5000005;28;19960;-72
2024/01/24 12:01:45;;;;;;;;;;;;;;;12.43;100.00;102129.28;4982698;28;19917;-73
2024/01/24 12:04:10;;;;;;;;;;;;;;;12.68;100.00;102116.03;4982656;28;19944;-73
2024/01/24 12:06:36;;;;;;;;;;;;;;;12.88;100.00;102118.22;4997125;28;19965;-72
2024/01/24 12:09:01;;;;;;;;;;;;;;;12.70;100.00;102130.25;4997862;28;20032;-73
2024/01/24 12:11:26;;;;;;;;;;;;;;;12.71;100.00;102134.69;4982356;28;20012;-72
2024/01/24 12:13:51;;;;;;;;;;;;;;;12.82;100.00;102129.44;4979883;28;19922;-72
2024/01/24 12:16:17;;;;;;;;;;;;;;;12.83;100.00;102147.34;4999154;28;20026;-72
2024/01/24 12:18:42;;;;;;;;;;;;;;;12.78;100.00;102145.91;4996707;28;20124;-72
2024/01/24 12:21:09;;;;;;;;;;;;;;;12.39;100.00;102151.13;4990536;28;19921;-74